createdAt,value
2023-05-12T00:01:39.669Z,13.98
2023-05-12T00:04:09.823Z,13.93
2023-05-12T00:06:40.078Z,13.90
2023-05-12T00:09:10.361Z,13.84
2023-05-12T00:11:43.388Z,13.83
2023-05-12T00:14:13.508Z,13.84
2023-05-12T00:16:43.747Z,13.88
2023-05-12T00:19:15.248Z,13.83
2023-05-12T00:21:45.565Z,13.80
2023-05-12T00:24:19.433Z,13.76
2023-05-12T00:26:52.472Z,13.81
2023-05-12T00:29:22.866Z,13.85
2023-05-12T00:31:53.135Z,13.91
2023-05-12T00:34:23.359Z,13.94
2023-05-12T00:36:53.433Z,13.95
2023-05-12T00:39:24.011Z,13.93
2023-05-12T00:42:12.305Z,13.88
2023-05-12T00:44:42.300Z,13.84
2023-05-12T00:47:13.096Z,13.81
2023-05-12T00:49:44.393Z,13.82
2023-05-12T00:52:14.883Z,13.79
2023-05-12T00:54:45.875Z,13.80
2023-05-12T00:57:18.577Z,13.86
2023-05-12T00:59:48.674Z,13.84
2023-05-12T01:02:21.261Z,13.85
2023-05-12T01:04:53.055Z,13.89
2023-05-12T01:07:25.931Z,13.93
2023-05-12T01:09:58.374Z,13.96
2023-05-12T01:12:33.764Z,13.94
2023-05-12T01:15:04.949Z,13.95
2023-05-12T01:17:37.924Z,13.94
2023-05-12T01:20:18.418Z,13.98
2023-05-12T01:22:51.100Z,13.95
2023-05-12T01:25:25.432Z,13.99
2023-05-12T01:27:58.744Z,13.95
2023-05-12T01:30:30.666Z,13.83
2023-05-12T01:33:01.181Z,13.89
2023-05-12T01:35:31.825Z,13.86
2023-05-12T01:38:04.411Z,13.79
2023-05-12T01:40:37.908Z,13.75
2023-05-12T01:43:10.526Z,13.74
2023-05-12T01:45:40.824Z,13.72
2023-05-12T01:48:11.007Z,13.76
2023-05-12T01:50:42.555Z,13.68
2023-05-12T01:53:17.026Z,13.67
2023-05-12T01:55:55.466Z,13.63
2023-05-12T01:58:33.724Z,13.57
2023-05-12T02:01:04.259Z,13.55
2023-05-12T02:03:35.193Z,13.55
2023-05-12T02:06:07.448Z,13.27
2023-05-12T02:08:37.908Z,13.49
2023-05-12T02:11:09.911Z,13.47
2023-05-12T02:13:47.072Z,13.45
2023-05-12T02:16:17.962Z,13.48
2023-05-12T02:18:48.569Z,13.55
2023-05-12T02:21:18.713Z,13.56
2023-05-12T02:23:48.821Z,13.50
2023-05-12T02:26:19.591Z,13.43
2023-05-12T02:28:52.418Z,13.42
2023-05-12T02:31:23.819Z,13.45
2023-05-12T02:33:54.636Z,13.46
2023-05-12T02:36:30.117Z,13.41
2023-05-12T02:39:09.660Z,13.36
2023-05-12T02:41:40.730Z,13.33
2023-05-12T02:44:16.814Z,13.34
2023-05-12T02:46:46.899Z,13.37
2023-05-12T02:49:16.922Z,13.40
2023-05-12T02:51:51.126Z,13.42
2023-05-12T02:54:21.537Z,13.38
2023-05-12T02:56:51.583Z,13.37
2023-05-12T02:59:24.290Z,13.31
2023-05-12T03:01:55.934Z,13.26
2023-05-12T03:04:26.356Z,13.24
2023-05-12T03:06:59.221Z,13.24
2023-05-12T03:09:31.047Z,13.29
2023-05-12T03:12:05.977Z,13.33
2023-05-12T03:14:39.494Z,13.34
2023-05-12T03:17:09.688Z,13.31
2023-05-12T03:19:39.871Z,13.29
2023-05-12T03:22:13.865Z,13.32
2023-05-12T03:24:48.927Z,13.35
2023-05-12T03:27:21.136Z,13.40
2023-05-12T03:29:54.709Z,13.40
2023-05-12T03:32:25.078Z,13.38
2023-05-12T03:34:55.346Z,13.30
2023-05-12T03:37:28.293Z,13.27
2023-05-12T03:39:58.788Z,13.21
2023-05-12T03:42:37.687Z,13.27
2023-05-12T03:45:25.248Z,13.27
2023-05-12T03:47:57.911Z,13.27
2023-05-12T03:50:31.399Z,13.30
2023-05-12T03:53:04.069Z,13.24
2023-05-12T03:55:34.972Z,13.30
2023-05-12T03:58:09.375Z,13.27
2023-05-12T04:00:53.594Z,13.27
2023-05-12T04:03:23.726Z,13.26
2023-05-12T04:06:00.122Z,13.28
2023-05-12T04:08:31.316Z,13.26
2023-05-12T04:11:05.080Z,13.25
2023-05-12T04:13:35.047Z,13.18
2023-05-12T04:16:08.458Z,13.20
2023-05-12T04:18:40.961Z,13.21
2023-05-12T04:21:14.970Z,13.25
2023-05-12T04:23:45.796Z,13.25
2023-05-12T04:26:16.053Z,13.27
2023-05-12T04:28:46.245Z,13.30
2023-05-12T04:31:21.601Z,13.32
2023-05-12T04:33:56.100Z,13.20
2023-05-12T04:36:27.938Z,13.42
2023-05-12T04:38:58.242Z,13.52
2023-05-12T04:41:28.691Z,13.50
2023-05-12T04:44:11.496Z,13.54
2023-05-12T04:46:47.005Z,13.52
2023-05-12T04:49:17.055Z,13.55
2023-05-12T04:51:47.043Z,13.62
2023-05-12T04:54:17.153Z,13.58
2023-05-12T04:56:47.492Z,13.73
2023-05-12T04:59:18.462Z,13.72
2023-05-12T05:01:53.763Z,13.76
2023-05-12T05:04:24.204Z,13.80
2023-05-12T05:06:55.754Z,13.71
2023-05-12T05:09:26.694Z,13.84
2023-05-12T05:12:00.193Z,13.90
2023-05-12T05:14:31.063Z,14.05
2023-05-12T05:17:03.843Z,14.07
2023-05-12T05:19:50.968Z,14.14
2023-05-12T05:22:27.569Z,14.20
2023-05-12T05:24:57.938Z,14.29
2023-05-12T05:27:30.013Z,14.30
2023-05-12T05:30:00.948Z,14.38
2023-05-12T05:32:35.573Z,14.42
2023-05-12T05:35:07.127Z,14.46
2023-05-12T05:37:39.574Z,14.45
2023-05-12T05:40:11.508Z,14.51
2023-05-12T05:42:41.581Z,14.57
2023-05-12T05:45:13.275Z,14.57
2023-05-12T05:47:46.848Z,14.60
2023-05-12T05:50:17.190Z,14.62
2023-05-12T05:52:47.250Z,14.73
2023-05-12T05:55:17.664Z,14.80
2023-05-12T05:57:48.248Z,14.82
2023-05-12T06:00:19.253Z,14.98
2023-05-12T06:03:07.499Z,15.06
2023-05-12T06:05:38.001Z,15.07
2023-05-12T06:08:09.545Z,15.06
2023-05-12T06:10:43.138Z,15.13
2023-05-12T06:13:18.173Z,15.19
2023-05-12T06:15:50.038Z,15.22
2023-05-12T06:18:22.673Z,15.23
2023-05-12T06:20:53.496Z,15.28
2023-05-12T06:23:24.277Z,15.26
2023-05-12T06:25:54.927Z,15.22
2023-05-12T06:28:30.845Z,15.18
2023-05-12T06:31:01.317Z,15.20
2023-05-12T06:33:34.084Z,15.23
2023-05-12T06:36:05.071Z,15.16
2023-05-12T06:38:43.419Z,15.08
2023-05-12T06:41:13.901Z,15.05
2023-05-12T06:43:48.522Z,15.05
2023-05-12T06:46:21.413Z,14.99
2023-05-12T06:48:58.297Z,15.03
2023-05-12T06:51:33.219Z,15.05
2023-05-12T06:54:05.590Z,15.10
2023-05-12T06:56:35.665Z,15.10
2023-05-12T06:59:08.160Z,15.09
2023-05-12T07:01:38.632Z,15.23
2023-05-12T07:04:27.014Z,15.40
2023-05-12T07:06:57.173Z,15.50
2023-05-12T07:09:27.468Z,15.60
2023-05-12T07:11:57.833Z,15.56
2023-05-12T07:14:31.258Z,15.65
2023-05-12T07:17:01.213Z,15.73
2023-05-12T07:19:40.649Z,15.72
2023-05-12T07:22:16.340Z,15.67
2023-05-12T07:24:48.299Z,15.75
2023-05-12T07:27:18.445Z,15.89
2023-05-12T07:29:51.831Z,15.98
2023-05-12T07:32:22.013Z,16.13
2023-05-12T07:34:54.604Z,16.09
2023-05-12T07:37:24.703Z,16.06
2023-05-12T07:39:57.702Z,16.16
2023-05-12T07:42:27.874Z,16.23
2023-05-12T07:44:58.227Z,16.25
2023-05-12T07:47:29.197Z,16.32
2023-05-12T07:50:01.887Z,16.45
2023-05-12T07:52:39.455Z,16.49
2023-05-12T07:55:15.709Z,16.65
2023-05-12T07:57:52.480Z,16.88
2023-05-12T08:00:23.164Z,17.05
2023-05-12T08:02:56.534Z,17.16
2023-05-12T08:05:29.814Z,17.29
2023-05-12T08:07:59.844Z,17.40
2023-05-12T08:10:30.164Z,17.52
2023-05-12T08:13:00.367Z,17.71
2023-05-12T08:15:30.486Z,17.60
2023-05-12T08:18:00.487Z,17.49
2023-05-12T08:20:36.261Z,17.54
2023-05-12T08:23:08.137Z,17.59
2023-05-12T08:25:40.932Z,17.74
2023-05-12T08:28:23.239Z,18.01
2023-05-12T08:30:55.146Z,18.11
2023-05-12T08:33:26.194Z,18.16
2023-05-12T08:35:59.140Z,18.28
2023-05-12T08:38:33.538Z,18.46
2023-05-12T08:41:14.472Z,18.74
2023-05-12T08:43:49.653Z,18.69
2023-05-12T08:46:20.073Z,18.45
2023-05-12T08:48:55.450Z,18.52
2023-05-12T08:51:32.134Z,18.51
2023-05-12T08:54:03.359Z,18.58
2023-05-12T08:59:10.937Z,18.87
2023-05-12T09:01:44.178Z,18.94
2023-05-12T09:04:16.617Z,18.96
2023-05-12T09:06:49.918Z,18.94
2023-05-12T09:09:21.582Z,18.86
2023-05-12T09:11:56.099Z,18.71
2023-05-12T09:14:28.315Z,18.77
2023-05-12T09:17:03.328Z,18.75
2023-05-12T09:19:34.572Z,18.72
2023-05-12T09:22:14.937Z,18.73
2023-05-12T09:24:44.980Z,18.77
2023-05-12T09:27:16.089Z,18.84
2023-05-12T09:29:58.526Z,18.84
2023-05-12T09:32:35.416Z,18.92
2023-05-12T09:35:06.984Z,19.00
2023-05-12T09:37:40.472Z,19.08
2023-05-12T09:40:14.316Z,19.19
2023-05-12T09:42:45.444Z,19.25
2023-05-12T09:45:19.288Z,19.36
2023-05-12T09:47:51.552Z,19.41
2023-05-12T09:50:23.014Z,19.55
2023-05-12T09:52:55.534Z,19.65
2023-05-12T09:55:26.339Z,19.76
2023-05-12T09:57:58.226Z,19.88
2023-05-12T10:00:43.509Z,19.90
2023-05-12T10:03:23.114Z,19.89
2023-05-12T10:05:56.490Z,20.06
2023-05-12T10:08:37.250Z,20.24
2023-05-12T10:11:08.735Z,20.32
2023-05-12T10:13:39.531Z,20.39
2023-05-12T10:16:18.929Z,20.46
2023-05-12T10:18:49.798Z,20.57
2023-05-12T10:21:24.811Z,20.59
2023-05-12T10:23:58.029Z,20.62
2023-05-12T10:26:31.153Z,20.69
2023-05-12T10:29:03.004Z,20.68
2023-05-12T10:31:33.757Z,20.74
2023-05-12T10:34:06.092Z,20.81
2023-05-12T10:36:46.531Z,20.77
2023-05-12T10:39:20.163Z,20.87
2023-05-12T10:41:51.172Z,21.06
2023-05-12T10:44:30.093Z,21.19
2023-05-12T10:47:01.063Z,21.38
2023-05-12T10:49:42.389Z,21.33
2023-05-12T10:52:14.280Z,21.58
2023-05-12T10:54:50.289Z,21.46
2023-05-12T10:57:24.086Z,21.19
2023-05-12T10:59:56.034Z,21.13
2023-05-12T11:02:30.735Z,21.25
2023-05-12T11:05:04.627Z,21.29
2023-05-12T11:07:41.816Z,21.34
2023-05-12T11:10:18.271Z,21.37
2023-05-12T11:12:51.067Z,21.39
2023-05-12T11:15:23.818Z,21.56
2023-05-12T11:17:54.077Z,21.63
2023-05-12T11:20:30.181Z,21.64
2023-05-12T11:23:01.022Z,21.58
2023-05-12T11:25:36.277Z,21.51
2023-05-12T11:28:13.865Z,21.60
2023-05-12T11:30:54.880Z,21.69
2023-05-12T11:33:26.704Z,21.61
2023-05-12T11:35:56.840Z,21.32
2023-05-12T11:38:29.764Z,21.32
2023-05-12T11:41:17.149Z,21.51
2023-05-12T11:43:47.302Z,21.58
2023-05-12T11:46:26.830Z,21.60
2023-05-12T11:48:58.394Z,21.50
2023-05-12T11:51:32.595Z,21.54
2023-05-12T11:54:04.307Z,21.73
2023-05-12T11:56:40.372Z,21.90
2023-05-12T11:59:19.371Z,22.15
2023-05-12T12:01:51.093Z,22.30
2023-05-12T12:04:21.148Z,22.55
2023-05-12T12:06:51.261Z,22.77
2023-05-12T12:09:21.795Z,22.91
2023-05-12T12:11:54.452Z,22.65
2023-05-12T12:14:25.134Z,22.26
2023-05-12T12:16:57.340Z,21.89
2023-05-12T12:19:29.803Z,21.63
2023-05-12T12:22:00.460Z,21.44
2023-05-12T12:24:31.361Z,21.39
2023-05-12T12:27:04.794Z,21.33
2023-05-12T12:29:34.896Z,21.33
2023-05-12T12:32:04.936Z,21.33
2023-05-12T12:34:37.901Z,21.31
2023-05-12T12:37:08.140Z,21.63
2023-05-12T12:39:40.408Z,22.07
2023-05-12T12:42:13.608Z,22.19
2023-05-12T12:44:50.491Z,22.16
2023-05-12T12:47:20.787Z,22.01
2023-05-12T12:49:51.818Z,21.82
2023-05-12T12:52:21.771Z,21.69
2023-05-12T12:54:51.812Z,21.60
2023-05-12T12:57:26.259Z,21.49
2023-05-12T12:59:56.857Z,21.36
2023-05-12T13:02:42.213Z,21.28
2023-05-12T13:05:20.501Z,21.31
2023-05-12T13:07:53.735Z,21.68
2023-05-12T13:10:25.545Z,22.07
2023-05-12T13:12:58.232Z,22.45
2023-05-12T13:15:28.841Z,22.58
2023-05-12T13:18:01.252Z,22.68
2023-05-12T13:23:19.341Z,22.40
2023-05-12T13:25:52.212Z,22.10
2023-05-12T13:28:24.857Z,21.76
2023-05-12T13:30:55.147Z,21.56
2023-05-12T13:33:25.313Z,21.46
2023-05-12T13:36:02.201Z,21.49
2023-05-12T13:38:34.953Z,21.71
2023-05-12T13:41:05.483Z,21.89
2023-05-12T13:43:38.893Z,22.01
2023-05-12T13:46:13.301Z,22.11
2023-05-12T13:48:43.361Z,22.35
2023-05-12T13:51:13.757Z,22.50
2023-05-12T13:53:45.241Z,22.53
2023-05-12T13:56:19.006Z,22.58
2023-05-12T13:58:51.646Z,22.57
2023-05-12T14:01:21.865Z,22.50
2023-05-12T14:03:51.900Z,22.34
2023-05-12T14:06:21.852Z,22.08
2023-05-12T14:09:00.129Z,21.95
2023-05-12T14:11:30.188Z,21.80
2023-05-12T14:14:03.654Z,21.82
2023-05-12T14:16:34.444Z,22.08
2023-05-12T14:19:05.368Z,22.42
2023-05-12T14:21:37.044Z,22.64
2023-05-12T14:24:08.596Z,22.79
2023-05-12T14:26:38.879Z,22.88
2023-05-12T14:29:20.489Z,22.93
2023-05-12T14:31:51.011Z,22.85
2023-05-12T14:34:24.976Z,22.46
2023-05-12T14:36:54.724Z,22.01
2023-05-12T14:39:24.978Z,21.81
2023-05-12T14:41:56.443Z,21.75
2023-05-12T14:44:29.031Z,21.78
2023-05-12T14:47:09.187Z,21.91
2023-05-12T14:49:44.747Z,22.21
2023-05-12T14:52:15.936Z,22.54
2023-05-12T14:54:46.643Z,22.81
2023-05-12T14:57:22.299Z,22.91
2023-05-12T14:59:58.840Z,23.10
2023-05-12T15:02:31.250Z,23.17
2023-05-12T15:05:01.382Z,22.95
2023-05-12T15:07:31.817Z,22.59
2023-05-12T15:10:01.951Z,22.36
2023-05-12T15:12:32.015Z,22.17
2023-05-12T15:15:05.403Z,22.03
2023-05-12T15:17:38.900Z,21.82
2023-05-12T15:20:11.281Z,21.64
2023-05-12T15:22:41.423Z,21.67
2023-05-12T15:25:19.253Z,21.85
2023-05-12T15:27:49.623Z,21.95
2023-05-12T15:30:37.794Z,22.15
2023-05-12T15:33:07.975Z,22.13
2023-05-12T15:35:42.580Z,22.17
2023-05-12T15:38:21.871Z,22.48
2023-05-12T15:40:52.475Z,22.60
2023-05-12T15:43:29.752Z,22.58
2023-05-12T15:46:04.741Z,22.38
2023-05-12T15:48:35.540Z,22.18
2023-05-12T15:51:06.251Z,21.97
2023-05-12T15:53:36.514Z,21.93
2023-05-12T15:56:09.025Z,22.05
2023-05-12T15:58:39.107Z,22.16
2023-05-12T16:01:11.805Z,22.20
2023-05-12T16:03:42.627Z,22.30
2023-05-12T16:06:14.776Z,22.45
2023-05-12T16:08:48.625Z,22.25
2023-05-12T16:11:26.711Z,22.09
2023-05-12T16:13:57.488Z,21.90
2023-05-12T16:16:30.978Z,21.56
2023-05-12T16:19:01.375Z,21.55
2023-05-12T16:21:34.228Z,21.43
2023-05-12T16:24:08.899Z,21.34
2023-05-12T16:26:39.390Z,21.34
2023-05-12T16:29:09.636Z,21.45
2023-05-12T16:31:43.718Z,21.52
2023-05-12T16:34:13.528Z,21.54
2023-05-12T16:36:50.849Z,21.60
2023-05-12T16:39:20.910Z,21.72
2023-05-12T16:41:51.579Z,21.72
2023-05-12T16:44:22.135Z,21.72
2023-05-12T16:46:54.843Z,21.69
2023-05-12T16:49:27.619Z,21.66
2023-05-12T16:51:57.688Z,21.62
2023-05-12T16:54:27.759Z,21.60
2023-05-12T16:56:59.160Z,21.56
2023-05-12T16:59:32.618Z,21.48
2023-05-12T17:02:05.434Z,21.41
2023-05-12T17:04:35.550Z,21.33
2023-05-12T17:07:05.724Z,21.28
2023-05-12T17:09:35.782Z,21.27
2023-05-12T17:12:09.474Z,21.25
2023-05-12T17:14:40.486Z,21.22
2023-05-12T17:17:17.509Z,21.08
2023-05-12T17:19:47.645Z,21.16
2023-05-12T17:22:17.797Z,21.13
2023-05-12T17:24:48.828Z,20.95
2023-05-12T17:27:18.807Z,21.08
2023-05-12T17:29:50.544Z,21.07
2023-05-12T17:32:26.483Z,21.02
2023-05-12T17:34:58.995Z,20.98
2023-05-12T17:37:30.390Z,20.97
2023-05-12T17:40:01.435Z,20.92
2023-05-12T17:42:32.125Z,20.91
2023-05-12T17:45:02.174Z,20.89
2023-05-12T17:47:35.256Z,20.86
2023-05-12T17:50:05.335Z,20.81
2023-05-12T17:52:37.801Z,20.75
2023-05-12T17:55:09.087Z,20.71
2023-05-12T17:57:39.174Z,20.65
2023-05-12T18:00:11.036Z,20.60
2023-05-12T18:02:49.365Z,20.54
2023-05-12T18:05:20.508Z,20.51
2023-05-12T18:07:54.061Z,20.38
2023-05-12T18:10:28.120Z,20.38
2023-05-12T18:13:00.927Z,20.34
2023-05-12T18:15:31.173Z,20.31
2023-05-12T18:18:03.941Z,20.21
2023-05-12T18:20:34.104Z,20.20
2023-05-12T18:23:04.193Z,20.16
2023-05-12T18:25:35.634Z,20.12
2023-05-12T18:28:06.671Z,20.07
2023-05-12T18:30:36.828Z,20.01
2023-05-12T18:33:09.690Z,19.95
2023-05-12T18:35:39.801Z,19.88
2023-05-12T18:38:10.000Z,19.84
2023-05-12T18:40:41.212Z,19.80
2023-05-12T18:43:13.710Z,19.73
2023-05-12T18:45:43.666Z,19.65
2023-05-12T18:48:16.288Z,19.63
2023-05-12T18:50:46.841Z,19.50
2023-05-12T18:53:17.364Z,19.46
2023-05-12T18:55:51.743Z,19.20
2023-05-12T18:58:23.263Z,19.34
2023-05-12T19:00:53.434Z,19.27
2023-05-12T19:03:27.472Z,19.24
2023-05-12T19:05:59.963Z,19.18
2023-05-12T19:08:30.298Z,19.12
2023-05-12T19:11:03.001Z,19.06
2023-05-12T19:13:43.569Z,19.00
2023-05-12T19:16:13.632Z,18.97
2023-05-12T19:18:46.416Z,18.92
2023-05-12T19:21:16.724Z,18.88
2023-05-12T19:23:47.124Z,18.83
2023-05-12T19:26:17.553Z,18.72
2023-05-12T19:28:52.617Z,18.65
2023-05-12T19:31:22.901Z,18.56
2023-05-12T19:33:56.381Z,18.51
2023-05-12T19:36:27.804Z,18.46
2023-05-12T19:39:00.487Z,18.42
2023-05-12T19:41:31.082Z,18.34
2023-05-12T19:44:01.920Z,18.27
2023-05-12T19:46:33.751Z,18.20
2023-05-12T19:49:06.483Z,18.13
2023-05-12T19:51:36.935Z,18.05
2023-05-12T19:54:16.032Z,18.01
2023-05-12T19:56:46.356Z,17.99
2023-05-12T19:59:18.832Z,17.94
2023-05-12T20:01:49.904Z,17.88
2023-05-12T20:04:22.857Z,17.68
2023-05-12T20:06:54.601Z,17.70
2023-05-12T20:09:26.136Z,17.67
2023-05-12T20:11:56.977Z,17.62
2023-05-12T20:14:27.559Z,17.53
2023-05-12T20:16:59.219Z,17.48
2023-05-12T20:19:32.320Z,17.38
2023-05-12T20:22:02.822Z,17.36
2023-05-12T20:24:33.394Z,17.29
2023-05-12T20:27:03.776Z,17.25
2023-05-12T20:29:34.761Z,17.18
2023-05-12T20:32:05.273Z,17.12
2023-05-12T20:34:38.337Z,17.04
2023-05-12T20:37:14.221Z,17.00
2023-05-12T20:39:44.770Z,16.94
2023-05-12T20:42:15.788Z,16.89
2023-05-12T20:44:46.194Z,16.83
2023-05-12T20:47:16.545Z,16.76
2023-05-12T20:49:54.221Z,16.71
2023-05-12T20:52:29.010Z,16.61
2023-05-12T20:55:00.802Z,16.61
2023-05-12T20:57:32.418Z,16.54
2023-05-12T21:00:02.577Z,16.51
2023-05-12T21:02:34.489Z,16.46
2023-05-12T21:05:12.311Z,16.41
2023-05-12T21:07:42.659Z,16.34
2023-05-12T21:10:13.941Z,16.34
2023-05-12T21:12:46.001Z,16.28
2023-05-12T21:15:17.236Z,16.17
2023-05-12T21:17:50.239Z,16.12
2023-05-12T21:20:45.228Z,16.05
2023-05-12T21:23:15.817Z,16.00
2023-05-12T21:25:46.153Z,15.93
2023-05-12T21:28:19.426Z,15.87
2023-05-12T21:30:49.568Z,15.83
2023-05-12T21:33:19.630Z,15.79
2023-05-12T21:35:52.546Z,15.75
2023-05-12T21:38:24.989Z,15.69
2023-05-12T21:41:00.845Z,15.67
2023-05-12T21:43:31.011Z,15.64
2023-05-12T21:46:05.399Z,15.59
2023-05-12T21:48:35.624Z,15.58
2023-05-12T21:51:08.595Z,15.56
2023-05-12T21:53:40.736Z,15.52
2023-05-12T21:56:13.079Z,15.50
2023-05-12T21:58:44.960Z,15.48
2023-05-12T22:01:17.437Z,15.46
2023-05-12T22:03:56.235Z,15.41
2023-05-12T22:06:29.180Z,15.37
2023-05-12T22:08:59.478Z,15.32
2023-05-12T22:11:29.833Z,15.29
2023-05-12T22:14:00.145Z,15.25
2023-05-12T22:16:40.640Z,15.21
2023-05-12T22:19:19.730Z,15.15
2023-05-12T22:21:59.755Z,15.10
2023-05-12T22:24:30.255Z,15.06
2023-05-12T22:27:00.285Z,15.02
2023-05-12T22:29:33.820Z,15.01
2023-05-12T22:32:03.858Z,14.92
2023-05-12T22:34:33.927Z,14.91
2023-05-12T22:37:06.557Z,14.87
2023-05-12T22:39:36.679Z,14.85
2023-05-12T22:42:12.374Z,14.80
2023-05-12T22:44:42.450Z,14.81
2023-05-12T22:47:12.637Z,14.78
2023-05-12T22:49:42.802Z,14.76
2023-05-12T22:52:15.481Z,14.73
2023-05-12T22:54:57.892Z,14.71
2023-05-12T22:57:29.842Z,14.68
2023-05-12T23:00:02.350Z,14.63
2023-05-12T23:02:35.482Z,14.60
2023-05-12T23:05:06.507Z,14.61
2023-05-12T23:07:39.369Z,14.62
2023-05-12T23:10:12.014Z,14.59
2023-05-12T23:12:42.309Z,14.59
2023-05-12T23:15:20.712Z,14.57
2023-05-12T23:17:50.859Z,14.51
2023-05-12T23:20:24.458Z,14.49
2023-05-12T23:22:57.044Z,14.43
2023-05-12T23:25:29.431Z,14.41
2023-05-12T23:28:00.865Z,14.36
2023-05-12T23:30:32.266Z,14.35
2023-05-12T23:33:02.700Z,14.33
2023-05-12T23:35:33.880Z,14.31
2023-05-12T23:38:06.766Z,14.28
2023-05-12T23:40:39.367Z,14.22
2023-05-12T23:43:09.777Z,14.16
2023-05-12T23:45:42.212Z,14.16
2023-05-12T23:48:12.301Z,14.11
2023-05-12T23:50:42.412Z,14.07
2023-05-12T23:53:18.143Z,14.06
2023-05-12T23:55:55.697Z,14.02
2023-05-12T23:58:25.732Z,14.00
